Belle River, Canada
Current Conditions -  °F | °C
As of 4:00 AM on Monday 22 Dec 2014 (Local Time) from CYQG Reporting Station
Overcast Overcast  
Wind Chill: 25°   Ceiling: 24000
Heat Index: 25°   Visibility: 10mi
Dew Point: 23°   Wind: 3mph
Humidity: 93%   Direction: 60°ENE
Pressure: 30.13"   Gusts: NA
Location:  42.3°N, 82.72°W
Report Text: CYQG 220900Z 06003KT 10SM OVC240 M04/M05 A3013 RMK CI8 SLP211
Loading
Personal Weather Stations






























Interactive Weather Map New forecast layout! Learn more

10-Day Weather Forecast

Advertisements
Track Severe Weather on mobile